Time;durP1;ratioP1;P1;durP2;ratioP2;P2;SDS_P1;SDS_P2;PMS_P1;PMS_P2;Temp;Humidity;BMP_temperature;BMP_pressure;BME280_temperature;BME280_humidity;BME280_pressure;Samples;Min_cycle;Max_cycle;Signal;HPM_P1;HPM_P2
2022/10/10 00:01:25;;;;;;;9.05;7.57;;;;;;;22.46;64.87;101515.03;5095366;28;20048;-71
2022/10/10 00:03:53;;;;;;;9.02;8.13;;;;;;;22.45;64.92;101503.41;5096207;28;20040;-72
2022/10/10 00:06:21;;;;;;;9.02;8.13;;;;;;;22.46;64.85;101506.94;5094496;28;20044;-72
2022/10/10 00:08:49;;;;;;;7.93;7.13;;;;;;;22.45;64.82;101502.56;5095716;28;20055;-72
2022/10/10 00:11:19;;;;;;;8.02;7.28;;;;;;;22.45;64.86;101495.31;5095306;28;20044;-72
2022/10/10 00:13:47;;;;;;;7.90;7.10;;;;;;;22.44;64.86;101501.72;5095320;28;20055;-72
2022/10/10 00:16:14;;;;;;;7.80;7.05;;;;;;;22.44;64.82;101500.81;5094413;28;20048;-72
2022/10/10 00:18:42;;;;;;;7.60;6.85;;;;;;;22.44;64.81;101501.72;5095630;28;20047;-71
2022/10/10 00:21:10;;;;;;;9.73;8.48;;;;;;;22.45;64.72;101502.56;5095009;28;20403;-72
2022/10/10 00:23:38;;;;;;;7.30;6.57;;;;;;;22.45;64.98;101502.56;5094993;28;20043;-72
2022/10/10 00:26:05;;;;;;;8.48;7.00;;;;;;;22.45;64.86;101503.41;5096747;28;20044;-72
2022/10/10 00:28:39;;;;;;;7.93;7.13;;;;;;;22.45;64.83;101495.31;5095509;28;20380;-72
2022/10/10 00:31:08;;;;;;;7.88;7.18;;;;;;;22.45;64.84;101498.00;5093497;28;20052;-72
2022/10/10 00:33:36;;;;;;;8.50;7.70;;;;;;;22.45;64.85;101494.47;5094737;28;20055;-72
2022/10/10 00:36:05;;;;;;;8.15;7.35;;;;;;;22.45;64.86;101491.75;5095246;28;20055;-71
2022/10/10 00:38:33;;;;;;;7.80;7.05;;;;;;;22.45;64.70;101491.75;5093083;28;20059;-71
2022/10/10 00:41:00;;;;;;;8.15;7.35;;;;;;;22.45;64.78;101491.75;5094930;28;20055;-72
2022/10/10 00:43:29;;;;;;;8.10;7.13;;;;;;;22.46;64.71;101498.84;5096734;28;20036;-72
2022/10/10 00:45:56;;;;;;;7.80;7.10;;;;;;;22.44;64.51;101490.91;5095076;28;20499;-72
2022/10/10 00:48:44;;;;;;;7.50;6.80;;;;;;;22.46;64.80;101493.47;5095008;28;20062;-71
2022/10/10 00:51:15;;;;;;;7.28;6.68;;;;;;;22.44;64.55;101496.31;5056116;28;20064;-80
2022/10/10 00:53:46;;;;;;;7.97;7.03;;;;;;;22.44;64.44;101496.31;5073623;28;20479;-80
2022/10/10 00:56:16;;;;;;;8.20;6.88;;;;;;;22.44;64.44;101496.31;5073160;28;20055;-80
2022/10/10 00:58:47;;;;;;;7.57;6.88;;;;;;;22.44;64.55;101490.91;5073024;28;20045;-80
2022/10/10 01:01:14;;;;;;;7.18;6.47;;;;;;;22.45;64.43;101486.38;5075056;28;20052;-80
2022/10/10 01:03:42;;;;;;;7.63;6.45;;;;;;;22.44;64.38;101484.63;5073704;28;20055;-80
2022/10/10 01:06:09;;;;;;;7.63;6.63;;;;;;;22.44;64.39;101490.91;5073285;28;20423;-80
2022/10/10 01:08:37;;;;;;;7.45;6.75;;;;;;;22.43;64.33;101499.97;5072960;28;20048;-80
2022/10/10 01:11:13;;;;;;;9.27;6.50;;;;;;;22.44;64.40;101495.44;5073110;28;20057;-81
2022/10/10 01:14:07;;;;;;;7.57;6.65;;;;;;;22.43;64.40;101489.19;5073175;28;20538;-81
2022/10/10 01:17:04;;;;;;;7.22;6.53;;;;;;;22.44;64.25;101484.63;5073102;28;20059;-81
2022/10/10 01:19:56;;;;;;;7.15;6.45;;;;;;;22.43;64.21;101489.19;5073244;28;20102;-81
2022/10/10 01:22:48;;;;;;;7.65;6.75;;;;;;;22.43;64.21;101486.47;5073051;28;20049;-81
2022/10/10 01:25:18;;;;;;;6.80;6.20;;;;;;;22.43;64.09;101478.38;5056714;28;20048;-81
2022/10/10 01:28:15;;;;;;;6.72;6.07;;;;;;;22.44;64.18;101490.03;5077541;28;20167;-73
2022/10/10 01:30:42;;;;;;;7.45;6.70;;;;;;;22.43;64.15;101494.56;5055114;28;20450;-72
2022/10/10 01:33:14;;;;;;;6.90;6.30;;;;;;;22.43;64.06;101486.47;5071471;28;20561;-72
2022/10/10 01:36:00;;;;;;;8.38;6.40;;;;;;;22.43;64.16;101494.56;5087169;28;20055;-72
2022/10/10 01:38:42;;;;;;;7.22;6.15;;;;;;;22.44;64.08;101490.03;5094384;28;20043;-72
2022/10/10 01:41:26;;;;;;;6.75;6.10;;;;;;;22.42;64.24;101483.94;5093922;28;20048;-72
2022/10/10 01:43:55;;;;;;;6.95;6.22;;;;;;;22.43;64.17;101499.13;5094235;28;20044;-73
2022/10/10 01:46:22;;;;;;;8.50;6.65;;;;;;;22.43;64.17;101494.56;5094196;28;20044;-72
2022/10/10 01:48:53;;;;;;;7.20;6.50;;;;;;;22.43;64.06;101491.03;5094141;28;20055;-72
2022/10/10 01:51:42;;;;;;;7.70;6.80;;;;;;;22.43;64.16;101488.34;5094052;28;20060;-73
2022/10/10 01:54:33;;;;;;;6.13;5.53;;;;;;;22.43;63.99;101491.88;5093519;28;20051;-72
2022/10/10 01:57:42;;;;;;;7.15;6.45;;;;;;;22.43;64.00;101488.34;5093917;28;20052;-72
2022/10/10 02:00:12;;;;;;;6.72;6.13;;;;;;;22.43;63.98;101485.63;5094082;28;20051;-72
2022/10/10 02:03:04;;;;;;;6.30;5.70;;;;;;;22.43;63.94;101482.94;5093996;28;20044;-72
2022/10/10 02:05:40;;;;;;;6.65;6.05;;;;;;;22.43;63.83;101480.25;5093809;28;20391;-72
2022/10/10 02:08:25;;;;;;;7.80;6.50;;;;;;;22.42;63.96;101482.09;5093801;28;20048;-72
2022/10/10 02:10:59;;;;;;;6.50;5.90;;;;;;;22.42;63.93;101483.94;5093517;28;20048;-72
2022/10/10 02:13:35;;;;;;;6.63;6.03;;;;;;;22.42;64.08;101475.84;5093678;28;20395;-72
2022/10/10 02:16:07;;;;;;;7.05;6.40;;;;;;;22.40;63.82;101476.00;5094273;28;20059;-72
2022/10/10 02:18:35;;;;;;;7.15;6.45;;;;;;;22.43;63.85;101474.84;5092166;28;20055;-72
2022/10/10 02:21:05;;;;;;;6.47;5.65;;;;;;;22.42;63.78;101465.91;5094813;28;20044;-72
2022/10/10 02:23:34;;;;;;;6.22;5.63;;;;;;;22.42;63.90;101465.06;5093281;28;20036;-72
2022/10/10 02:26:03;;;;;;;6.85;6.25;;;;;;;22.42;63.79;101467.75;5092233;28;20051;-72
2022/10/10 02:28:47;;;;;;;7.60;5.85;;;;;;;22.43;63.96;101469.44;5093942;28;20047;-72
2022/10/10 02:31:20;;;;;;;7.32;6.68;;;;;;;22.42;63.91;101470.44;5093803;28;20040;-72
2022/10/10 02:33:55;;;;;;;5.97;5.45;;;;;;;22.42;63.85;101470.44;5093153;28;20044;-72
2022/10/10 02:36:24;;;;;;;6.95;5.72;;;;;;;22.43;63.87;101469.44;5095106;28;20055;-80
2022/10/10 02:38:52;;;;;;;6.35;5.72;;;;;;;22.41;63.77;101464.19;5098004;28;20067;-80
2022/10/10 02:41:21;;;;;;;6.45;5.85;;;;;;;22.42;63.68;101467.75;5097945;28;20051;-81
2022/10/10 02:43:50;;;;;;;7.07;6.30;;;;;;;22.42;63.76;101465.06;5097974;28;20051;-81
2022/10/10 02:46:18;;;;;;;5.88;5.30;;;;;;;22.42;63.82;101465.06;5098388;28;20047;-81
2022/10/10 02:48:46;;;;;;;6.57;5.38;;;;;;;22.42;63.82;101465.06;5098179;28;20502;-81
2022/10/10 02:51:15;;;;;;;6.75;5.80;;;;;;;22.42;63.67;101455.09;5097890;28;20055;-80
2022/10/10 02:53:43;;;;;;;6.15;5.55;;;;;;;22.41;63.50;101452.56;5097398;28;20043;-80
2022/10/10 02:56:10;;;;;;;8.18;5.70;;;;;;;22.42;63.69;101448.88;5098454;28;20048;-80
2022/10/10 02:58:38;;;;;;;6.65;5.72;;;;;;;22.42;63.46;101454.25;5099606;28;20048;-81
2022/10/10 03:01:05;;;;;;;6.28;5.55;;;;;;;22.40;63.46;101465.19;5097468;28;20044;-81
2022/10/10 03:03:32;;;;;;;6.43;5.82;;;;;;;22.40;63.44;101446.31;5098144;28;20048;-80
2022/10/10 03:06:01;;;;;;;6.40;5.80;;;;;;;22.40;63.53;101450.81;5096118;28;20059;-80
2022/10/10 03:08:28;;;;;;;6.55;5.90;;;;;;;22.41;63.47;101460.66;5098116;28;20040;-81
2022/10/10 03:10:58;;;;;;;6.60;5.80;;;;;;;22.40;63.42;101450.81;5097775;28;20071;-81
2022/10/10 03:13:26;;;;;;;6.40;5.80;;;;;;;22.41;63.56;101455.25;5097279;28;20052;-80
2022/10/10 03:15:53;;;;;;;5.65;5.07;;;;;;;22.41;63.36;101468.75;5097619;28;20048;-79
2022/10/10 03:18:21;;;;;;;6.07;5.53;;;;;;;22.40;63.42;101458.91;5097646;28;20502;-80
2022/10/10 03:20:54;;;;;;;6.50;5.90;;;;;;;22.41;63.38;101468.75;5097189;28;20055;-81
2022/10/10 03:23:23;;;;;;;6.50;5.90;;;;;;;22.40;63.25;101461.63;5097318;28;20376;-81
2022/10/10 03:25:50;;;;;;;6.55;5.88;;;;;;;22.41;63.30;101460.66;5097791;28;20048;-81
2022/10/10 03:28:21;;;;;;;6.85;5.65;;;;;;;22.40;63.59;101458.91;5099572;28;20047;-80
2022/10/10 03:30:49;;;;;;;8.60;5.68;;;;;;;22.40;63.39;101467.91;5096044;28;20066;-72
2022/10/10 03:33:16;;;;;;;8.07;5.68;;;;;;;22.41;63.38;101468.75;5095166;28;20055;-76
2022/10/10 03:35:43;;;;;;;5.22;4.72;;;;;;;22.41;63.60;101471.44;5096228;28;20051;-72
2022/10/10 03:38:15;;;;;;;7.03;5.72;;;;;;;22.41;63.59;101479.53;5100112;28;20051;-79
2022/10/10 03:40:54;;;;;;;6.35;5.28;;;;;;;22.41;63.47;101468.75;5115061;28;20125;-73
2022/10/10 03:43:24;;;;;;;6.07;5.10;;;;;;;22.41;63.51;101466.06;5113615;28;20052;-72
2022/10/10 03:45:57;;;;;;;5.75;5.20;;;;;;;22.41;63.39;101477.69;5113993;28;20051;-73
2022/10/10 03:48:31;;;;;;;5.93;5.40;;;;;;;22.42;63.50;101473.16;5115045;28;20039;-80
2022/10/10 03:51:02;;;;;;;7.88;5.57;;;;;;;22.40;63.51;101470.59;5113364;28;20062;-73
2022/10/10 03:53:29;;;;;;;6.28;5.68;;;;;;;22.41;63.26;101463.34;5096119;28;20058;-72
2022/10/10 03:55:56;;;;;;;5.55;5.03;;;;;;;22.41;63.47;101466.06;5094225;28;20059;-72
2022/10/10 03:58:24;;;;;;;7.28;5.53;;;;;;;22.40;63.27;101453.53;5096344;28;20048;-72
2022/10/10 04:00:55;;;;;;;7.75;5.38;;;;;;;22.40;63.22;101462.50;5095726;28;20047;-72
2022/10/10 04:03:23;;;;;;;5.53;5.03;;;;;;;22.40;63.10;101451.72;5098558;28;20395;-72
2022/10/10 04:05:51;;;;;;;5.60;5.10;;;;;;;22.40;63.09;101454.41;5095324;28;20036;-72
2022/10/10 04:08:18;;;;;;;6.00;4.93;;;;;;;22.40;63.08;101451.72;5095612;28;20047;-72
2022/10/10 04:10:53;;;;;;;7.40;5.47;;;;;;;22.40;63.10;101454.41;5095280;28;20399;-72
2022/10/10 04:13:22;;;;;;;6.10;5.60;;;;;;;22.39;63.02;101457.22;5095453;28;20051;-72
2022/10/10 04:15:53;;;;;;;6.88;5.10;;;;;;;22.39;63.07;101462.63;5096554;28;20043;-81
2022/10/10 04:18:21;;;;;;;5.72;5.13;;;;;;;22.39;63.06;101458.06;5096326;28;20475;-81
2022/10/10 04:20:48;;;;;;;5.68;5.10;;;;;;;22.38;63.06;101456.38;5096330;28;20071;-81
2022/10/10 04:23:16;;;;;;;5.97;4.95;;;;;;;22.39;63.00;101465.31;5099541;28;20040;-81
2022/10/10 04:25:43;;;;;;;5.68;4.82;;;;;;;22.39;63.07;101468.00;5096105;28;20051;-81
2022/10/10 04:28:13;;;;;;;4.97;4.47;;;;;;;22.39;63.02;101470.72;5096449;28;20506;-81
2022/10/10 04:30:40;;;;;;;6.55;5.13;;;;;;;22.39;62.95;101468.00;5096045;28;20050;-80
2022/10/10 04:33:07;;;;;;;5.82;5.13;;;;;;;22.38;62.89;101464.47;5097131;28;20371;-80
2022/10/10 04:35:35;;;;;;;6.30;5.22;;;;;;;22.38;63.07;101466.31;5096175;28;20040;-80
2022/10/10 04:38:05;;;;;;;5.50;5.00;;;;;;;22.39;63.06;101463.47;5095893;28;20044;-81
2022/10/10 04:40:32;;;;;;;6.55;5.22;;;;;;;22.39;63.12;101459.91;5095711;28;20055;-72
2022/10/10 04:42:59;;;;;;;7.15;5.05;;;;;;;22.38;62.94;101463.63;5094966;28;20491;-72
2022/10/10 04:45:27;;;;;;;5.88;5.30;;;;;;;22.39;63.11;101459.91;5094609;28;20395;-72
2022/10/10 04:47:55;;;;;;;6.35;5.70;;;;;;;22.39;63.12;101468.00;5094989;28;20047;-72
2022/10/10 04:50:23;;;;;;;6.75;5.43;;;;;;;22.40;62.92;101467.00;5095097;28;20506;-72
2022/10/10 04:52:50;;;;;;;8.52;5.35;;;;;;;22.38;62.93;101460.91;5096683;28;20059;-81
2022/10/10 04:55:18;;;;;;;5.97;5.28;;;;;;;22.38;62.89;101461.78;5094532;28;20047;-81
2022/10/10 04:57:45;;;;;;;5.70;4.65;;;;;;;22.39;62.95;101462.63;5095148;28;20052;-82
2022/10/10 05:00:13;;;;;;;7.68;5.47;;;;;;;22.39;62.92;101466.16;5096747;28;20043;-83
2022/10/10 05:02:41;;;;;;;7.50;5.47;;;;;;;22.38;63.06;101467.16;5095958;28;20051;-83
2022/10/10 05:05:08;;;;;;;7.75;4.57;;;;;;;22.39;63.07;101465.31;5096016;28;20051;-83
2022/10/10 05:07:36;;;;;;;5.25;4.75;;;;;;;22.38;62.96;101469.00;5099258;28;20048;-83
2022/10/10 05:10:05;;;;;;;6.45;5.15;;;;;;;22.38;62.89;101471.72;5098945;28;20051;-83
2022/10/10 05:12:33;;;;;;;7.20;5.32;;;;;;;22.38;62.98;101463.63;5096787;28;20044;-82
2022/10/10 05:15:00;;;;;;;8.32;4.82;;;;;;;22.37;62.89;101470.00;5097305;28;20055;-82
2022/10/10 05:17:27;;;;;;;7.65;5.32;;;;;;;22.39;63.12;101470.72;5095964;28;20375;-78
2022/10/10 05:19:55;;;;;;;6.50;5.90;;;;;;;22.38;63.06;101467.16;5095875;28;20051;-80
2022/10/10 05:22:22;;;;;;;7.40;4.75;;;;;;;22.37;62.84;101472.72;5095083;28;20600;-83
2022/10/10 05:24:49;;;;;;;6.63;4.78;;;;;;;22.37;63.02;101473.56;5098588;28;20044;-74
2022/10/10 05:27:17;;;;;;;8.20;6.32;;;;;;;22.38;62.82;101477.09;5094028;28;20044;-74
2022/10/10 05:29:44;;;;;;;5.68;5.10;;;;;;;22.37;62.85;101473.56;5094171;28;20047;-73
2022/10/10 05:32:11;;;;;;;5.30;4.80;;;;;;;22.38;62.71;101475.25;5094176;28;20055;-73
2022/10/10 05:34:38;;;;;;;6.03;5.15;;;;;;;22.38;62.80;101477.09;5092426;28;20048;-73
2022/10/10 05:37:06;;;;;;;5.93;4.82;;;;;;;22.38;62.95;101477.94;5093531;28;20055;-73
2022/10/10 05:39:34;;;;;;;5.65;5.05;;;;;;;22.38;62.80;101479.81;5094031;28;20051;-73
2022/10/10 05:42:01;;;;;;;6.03;4.82;;;;;;;22.38;62.84;101477.09;5093887;28;20040;-73
2022/10/10 05:44:29;;;;;;;5.78;4.70;;;;;;;22.38;62.78;101487.91;5092544;28;20047;-73
2022/10/10 05:46:57;;;;;;;7.13;4.80;;;;;;;22.38;62.80;101485.19;5094446;28;20051;-73
2022/10/10 05:49:24;;;;;;;5.78;5.25;;;;;;;22.37;62.79;101489.75;5092922;28;20050;-73
2022/10/10 05:51:51;;;;;;;6.00;5.32;;;;;;;22.38;62.83;101501.38;5093969;28;20044;-73
2022/10/10 05:54:20;;;;;;;5.15;4.65;;;;;;;22.36;62.84;101492.56;5093682;28;20066;-73
2022/10/10 05:56:47;;;;;;;5.80;5.05;;;;;;;22.37;62.71;101497.84;5094317;28;20395;-73
2022/10/10 05:59:14;;;;;;;6.53;4.80;;;;;;;22.36;62.76;101492.56;5095032;28;20044;-73
2022/10/10 06:01:41;;;;;;;5.75;4.90;;;;;;;22.37;62.61;101497.00;5094221;28;20051;-73
2022/10/10 06:04:09;;;;;;;7.20;5.03;;;;;;;22.36;62.57;101497.94;5094830;28;20048;-73
2022/10/10 06:06:36;;;;;;;5.85;4.75;;;;;;;22.37;62.61;101505.06;5092436;28;20051;-73
2022/10/10 06:09:03;;;;;;;8.07;5.20;;;;;;;22.36;62.61;101495.25;5094331;28;20052;-73
2022/10/10 06:11:30;;;;;;;5.30;4.80;;;;;;;22.37;62.61;101499.69;5094374;28;20048;-73
2022/10/10 06:13:58;;;;;;;5.63;4.55;;;;;;;22.36;62.62;101501.53;5095318;28;20059;-73
2022/10/10 06:16:26;;;;;;;5.43;4.30;;;;;;;22.35;62.53;101501.66;5097464;28;20395;-73
2022/10/10 06:18:56;;;;;;;5.13;4.63;;;;;;;22.37;62.98;101511.31;5097720;28;20052;-73
2022/10/10 06:21:24;;;;;;;5.15;4.75;;;;;;;22.36;62.74;101514.13;5097389;28;20063;-73
2022/10/10 06:23:52;;;;;;;5.72;4.95;;;;;;;22.36;62.51;101503.34;5096410;28;20051;-73
2022/10/10 06:26:19;;;;;;;6.22;5.05;;;;;;;22.35;62.66;101510.59;5097265;28;20403;-73
2022/10/10 06:28:49;;;;;;;7.03;4.65;;;;;;;22.36;62.69;101514.13;5097301;28;20048;-73
2022/10/10 06:31:16;;;;;;;5.30;4.80;;;;;;;22.35;62.67;101513.28;5097396;28;20043;-73
2022/10/10 06:33:45;;;;;;;6.03;5.00;;;;;;;22.36;62.64;101515.03;5097185;28;20044;-73
2022/10/10 06:36:13;;;;;;;5.88;5.30;;;;;;;22.36;62.52;101516.84;5097427;28;20372;-73
2022/10/10 06:38:43;;;;;;;5.03;4.50;;;;;;;22.35;62.62;101521.38;5097063;28;20048;-73
2022/10/10 06:41:10;;;;;;;7.25;4.93;;;;;;;22.35;62.64;101515.97;5097431;28;20044;-73
2022/10/10 06:43:38;;;;;;;5.57;4.78;;;;;;;22.35;62.59;101515.13;5097396;28;20043;-73
2022/10/10 06:46:06;;;;;;;5.85;4.82;;;;;;;22.35;62.65;101517.84;5096999;28;20047;-73
2022/10/10 06:48:34;;;;;;;5.53;5.03;;;;;;;22.34;62.54;101522.38;5096937;28;20403;-73
2022/10/10 06:51:05;;;;;;;6.10;5.15;;;;;;;22.35;62.48;101528.63;5095781;28;20407;-73
2022/10/10 06:53:33;;;;;;;7.53;4.75;;;;;;;22.34;62.65;101519.69;5097182;28;20059;-73
2022/10/10 06:56:00;;;;;;;5.80;4.80;;;;;;;22.34;62.63;101525.06;5097265;28;20040;-73
2022/10/10 06:58:28;;;;;;;4.88;4.32;;;;;;;22.34;62.55;101525.06;5096988;28;20059;-73
2022/10/10 07:00:58;;;;;;;5.45;4.88;;;;;;;22.35;62.64;101528.63;5096717;28;20044;-73
2022/10/10 07:03:28;;;;;;;6.43;5.00;;;;;;;22.35;62.71;101537.56;5097486;28;20044;-73
2022/10/10 07:06:01;;;;;;;5.60;5.10;;;;;;;22.35;62.66;101536.72;5095195;28;20043;-73
2022/10/10 07:08:29;;;;;;;5.88;4.40;;;;;;;22.34;62.66;101541.25;5078450;28;20044;-73
2022/10/10 07:10:56;;;;;;;5.78;5.15;;;;;;;22.34;62.47;101551.19;5097163;28;20044;-73
2022/10/10 07:13:23;;;;;;;5.18;4.65;;;;;;;22.35;62.67;101539.41;5096440;28;20051;-72
2022/10/10 07:15:52;;;;;;;7.80;4.68;;;;;;;22.35;62.61;101534.88;5095523;28;20063;-72
2022/10/10 07:18:20;;;;;;;7.72;4.88;;;;;;;22.35;62.79;101534.03;5096450;28;20402;-72
2022/10/10 07:20:48;;;;;;;7.95;4.97;;;;;;;22.35;62.65;101534.88;5097027;28;20051;-72
2022/10/10 07:23:16;;;;;;;6.97;4.63;;;;;;;22.36;62.78;101543.81;5096584;28;20048;-76
2022/10/10 07:25:43;;;;;;;5.50;4.47;;;;;;;22.36;62.68;101536.59;5095872;28;20044;-74
2022/10/10 07:28:11;;;;;;;5.25;4.68;;;;;;;22.36;62.54;101533.03;5096141;28;20051;-74
2022/10/10 07:30:42;;;;;;;6.13;4.53;;;;;;;22.36;62.16;101539.31;5095084;28;20055;-72
2022/10/10 07:33:12;;;;;;;5.72;4.95;;;;;;;22.36;61.97;101542.00;5096563;28;20044;-72
2022/10/10 07:35:39;;;;;;;6.55;5.22;;;;;;;22.36;61.24;101547.41;5095923;28;20043;-72
2022/10/10 07:38:09;;;;;;;9.02;4.95;;;;;;;22.35;60.96;101550.19;5095504;28;20372;-72
2022/10/10 07:40:39;;;;;;;9.10;5.20;;;;;;;22.34;60.57;101551.19;5096415;28;20040;-72
2022/10/10 07:43:06;;;;;;;7.20;4.95;;;;;;;22.32;60.54;101540.56;5096197;28;20055;-73
2022/10/10 07:45:36;;;;;;;5.47;4.97;;;;;;;22.35;61.35;101540.25;5105976;28;20048;-75
2022/10/10 07:48:03;;;;;;;5.65;5.00;;;;;;;22.35;61.31;101544.81;5112436;28;20043;-72
2022/10/10 07:50:31;;;;;;;6.72;4.95;;;;;;;22.36;60.07;101549.22;5095813;28;20044;-72
2022/10/10 07:52:58;;;;;;;5.60;5.05;;;;;;;22.35;59.65;101529.47;5095432;28;20063;-72
2022/10/10 07:55:26;;;;;;;6.20;4.97;;;;;;;22.35;59.33;101537.56;5095765;28;20070;-73
2022/10/10 07:57:53;;;;;;;6.72;5.45;;;;;;;22.36;59.53;101538.41;5095712;28;20052;-73
2022/10/10 08:00:21;;;;;;;8.05;5.35;;;;;;;22.31;59.72;101530.72;5095965;28;20051;-73
2022/10/10 08:02:50;;;;;;;9.75;5.53;;;;;;;22.35;60.09;101542.13;5095713;28;20491;-73
2022/10/10 08:05:18;;;;;;;9.40;5.50;;;;;;;22.36;60.45;101543.81;5095703;28;20048;-71
2022/10/10 08:07:45;;;;;;;6.80;4.88;;;;;;;22.36;60.05;101546.50;5095242;28;20044;-71
2022/10/10 08:10:12;;;;;;;8.95;5.50;;;;;;;22.37;60.18;101554.50;5095275;28;20044;-71
2022/10/10 08:12:40;;;;;;;7.95;4.93;;;;;;;22.38;59.76;101547.25;5095328;28;20137;-71
2022/10/10 08:15:08;;;;;;;5.50;4.65;;;;;;;22.40;60.38;101551.53;5095122;28;20048;-71
2022/10/10 08:17:35;;;;;;;4.93;4.43;;;;;;;22.40;60.60;101542.56;5095179;28;20040;-71
2022/10/10 08:20:03;;;;;;;7.70;4.95;;;;;;;22.41;60.66;101550.53;5093267;28;20507;-71
2022/10/10 08:22:31;;;;;;;5.75;4.72;;;;;;;22.42;60.54;101554.94;5094973;28;20055;-71
2022/10/10 08:24:58;;;;;;;9.85;5.35;;;;;;;22.43;60.36;101550.38;5094964;28;20044;-72
2022/10/10 08:27:25;;;;;;;5.65;4.30;;;;;;;22.42;60.17;101556.78;5094893;28;20043;-71
2022/10/10 08:29:52;;;;;;;5.60;4.72;;;;;;;22.44;59.79;101562.88;5093037;28;20055;-72
2022/10/10 08:32:20;;;;;;;7.45;5.45;;;;;;;22.44;59.71;101565.56;5094744;28;20514;-71
2022/10/10 08:34:47;;;;;;;6.72;5.47;;;;;;;22.44;59.59;101560.19;5094699;28;20048;-72
2022/10/10 08:37:14;;;;;;;5.65;4.68;;;;;;;22.44;59.26;101565.56;5092302;28;20048;-71
2022/10/10 08:39:42;;;;;;;5.60;5.05;;;;;;;22.43;59.26;101566.56;5093677;28;20044;-72
2022/10/10 08:42:16;;;;;;;6.13;4.65;;;;;;;22.45;59.13;101567.31;5094823;28;20055;-72
2022/10/10 08:44:54;;;;;;;7.50;4.75;;;;;;;22.44;58.89;101562.88;5094975;28;20394;-72
2022/10/10 08:47:36;;;;;;;6.03;5.43;;;;;;;22.44;58.85;101566.47;5095019;28;20059;-72
2022/10/10 08:50:20;;;;;;;6.25;5.57;;;;;;;22.44;58.62;101566.47;5094766;28;20040;-72
2022/10/10 08:53:02;;;;;;;7.32;5.30;;;;;;;22.46;58.65;101563.63;5094750;28;20047;-72
2022/10/10 08:55:36;;;;;;;10.43;5.32;;;;;;;22.46;59.00;101560.91;5094384;28;20059;-73
2022/10/10 08:58:31;;;;;;;6.43;4.80;;;;;;;22.47;59.69;101559.91;5094778;28;20048;-74
2022/10/10 09:01:23;;;;;;;9.50;6.22;;;;;;;22.45;58.85;101562.75;5094549;28;20055;-73
2022/10/10 09:03:58;;;;;;;6.47;5.75;;;;;;;22.46;59.24;101566.31;5094699;28;20052;-74
2022/10/10 09:06:56;;;;;;;8.32;4.70;;;;;;;22.46;59.59;101564.47;5092500;28;20048;-73
2022/10/10 09:09:57;;;;;;;9.88;5.65;;;;;;;22.48;59.54;101563.47;5092494;28;20052;-74
2022/10/10 09:13:03;;;;;;;7.70;5.55;;;;;;;22.47;59.41;101554.53;5092881;28;20048;-75
2022/10/10 09:15:36;;;;;;;6.22;5.25;;;;;;;22.48;58.88;101556.22;5032251;28;20116;-73
2022/10/10 09:18:31;;;;;;;6.75;5.20;;;;;;;22.46;59.20;101560.91;5031971;28;20057;-75
2022/10/10 09:21:16;;;;;;;11.18;5.32;;;;;;;22.47;59.12;101549.13;5015531;28;20068;-73
2022/10/10 09:23:52;;;;;;;9.88;6.07;;;;;;;22.48;59.32;101550.81;5042776;28;20071;-73
2022/10/10 09:26:27;;;;;;;8.32;5.13;;;;;;;22.49;59.36;101544.47;5034820;28;20548;-72
2022/10/10 09:29:26;;;;;;;9.65;5.18;;;;;;;22.48;59.18;101548.13;5051979;28;20064;-72
2022/10/10 09:32:02;;;;;;;8.70;5.15;;;;;;;22.49;59.70;101549.84;4991921;28;20062;-72
2022/10/10 09:34:42;;;;;;;11.45;5.18;;;;;;;22.49;59.82;101549.84;4991647;28;20076;-71
2022/10/10 09:37:22;;;;;;;6.28;4.88;;;;;;;22.49;59.16;101544.47;4991533;28;20489;-71
2022/10/10 09:40:16;;;;;;;9.02;5.28;;;;;;;22.49;58.88;101547.16;4991642;28;20066;-72
2022/10/10 09:42:44;;;;;;;6.32;4.35;;;;;;;22.50;58.62;101554.25;4991808;28;20066;-71
2022/10/10 09:45:19;;;;;;;5.57;4.90;;;;;;;22.50;58.96;101551.56;4992932;28;20163;-71
2022/10/10 09:47:52;;;;;;;6.65;5.10;;;;;;;22.50;58.92;101548.88;5050788;28;20087;-71
2022/10/10 09:50:20;;;;;;;6.93;5.75;;;;;;;22.51;58.98;101547.88;5051424;28;20057;-71
2022/10/10 09:52:49;;;;;;;7.32;5.47;;;;;;;22.50;59.18;101538.06;5051142;28;20056;-71
2022/10/10 09:55:32;;;;;;;7.85;5.00;;;;;;;22.50;59.15;101539.91;5051103;28;20061;-71
2022/10/10 09:58:32;;;;;;;17.90;5.80;;;;;;;22.50;58.79;101542.63;5051393;28;20459;-71
2022/10/10 10:01:19;;;;;;;6.68;5.70;;;;;;;22.50;58.70;101548.88;5051025;28;20048;-71
2022/10/10 10:04:22;;;;;;;6.57;4.88;;;;;;;22.51;58.88;101549.72;5051068;28;20052;-71
2022/10/10 10:07:16;;;;;;;6.45;5.50;;;;;;;22.49;59.05;101552.56;4972444;28;20051;-71
2022/10/10 10:10:00;;;;;;;9.77;5.97;;;;;;;22.50;59.54;101550.72;5050912;28;20065;-71
2022/10/10 10:12:36;;;;;;;9.45;5.22;;;;;;;22.51;59.48;101555.09;5051779;28;20048;-72
2022/10/10 10:15:17;;;;;;;11.32;5.75;;;;;;;22.50;58.09;101554.25;5051213;28;20060;-72
2022/10/10 10:17:45;;;;;;;7.85;6.28;;;;;;;22.49;57.72;101562.50;5051129;28;20045;-71
2022/10/10 10:20:32;;;;;;;7.68;5.63;;;;;;;22.47;57.65;101559.91;5051433;28;20049;-71
2022/10/10 10:22:59;;;;;;;6.82;5.75;;;;;;;22.46;57.35;101556.38;5051236;28;20045;-70
2022/10/10 10:25:35;;;;;;;9.23;5.85;;;;;;;22.45;56.83;101554.66;5051548;28;20076;-70
2022/10/10 10:28:10;;;;;;;7.43;5.53;;;;;;;22.44;56.85;101554.78;5051336;28;20064;-70
2022/10/10 10:30:39;;;;;;;7.32;5.65;;;;;;;22.44;56.32;101554.78;5051178;28;20049;-71
2022/10/10 10:33:12;;;;;;;6.15;5.45;;;;;;;22.43;56.29;101553.09;5051022;28;20463;-70
2022/10/10 10:36:08;;;;;;;6.95;6.07;;;;;;;22.40;55.96;101553.34;5050755;28;20065;-70
2022/10/10 10:38:51;;;;;;;6.28;5.57;;;;;;;22.40;56.46;101548.84;4972143;28;20059;-71
2022/10/10 10:41:30;;;;;;;9.02;6.00;;;;;;;22.40;56.78;101542.56;5010468;28;20058;-71
2022/10/10 10:44:27;;;;;;;9.25;6.00;;;;;;;22.42;56.41;101540.59;5030661;28;20424;-71
2022/10/10 10:47:26;;;;;;;5.95;4.93;;;;;;;22.43;56.75;101545.00;5031132;28;20061;-71
2022/10/10 10:50:37;;;;;;;8.07;6.45;;;;;;;22.45;56.60;101538.47;5007620;28;20066;-71
2022/10/10 10:53:19;;;;;;;7.57;5.63;;;;;;;22.46;56.87;101536.63;4964527;28;20422;-71
2022/10/10 10:55:56;;;;;;;6.72;6.03;;;;;;;22.47;56.92;101538.34;4954101;28;20060;-71
2022/10/10 10:58:32;;;;;;;6.57;5.00;;;;;;;22.48;57.10;101536.50;4948669;28;20066;-71
2022/10/10 11:01:41;;;;;;;9.38;5.72;;;;;;;22.48;57.47;101540.03;4956523;29;20403;-71
2022/10/10 11:04:44;;;;;;;6.97;6.05;;;;;;;22.49;57.32;101540.91;4956202;29;20439;-71
2022/10/10 11:08:10;;;;;;;9.43;6.07;;;;;;;22.50;57.87;101538.06;4956011;29;20054;-71
2022/10/10 11:11:01;;;;;;;8.68;7.05;;;;;;;22.49;56.89;101536.38;4880131;29;20077;-70
2022/10/10 11:13:34;;;;;;;13.73;6.65;;;;;;;22.51;57.37;101539.78;4880671;29;20063;-71
2022/10/10 11:16:15;;;;;;;8.13;6.50;;;;;;;22.50;56.79;101532.66;4912333;29;20063;-71
2022/10/10 11:19:11;;;;;;;7.47;5.93;;;;;;;22.51;56.64;101528.97;4936822;29;20048;-71
2022/10/10 11:21:53;;;;;;;6.30;5.45;;;;;;;22.52;57.03;101535.22;4936406;29;20059;-71
2022/10/10 11:24:39;;;;;;;7.25;6.07;;;;;;;22.52;57.00;101521.72;4936707;29;20063;-71
2022/10/10 11:27:34;;;;;;;8.15;6.10;;;;;;;22.51;56.72;101523.59;4936410;29;20059;-72
2022/10/10 11:30:04;;;;;;;7.10;5.68;;;;;;;22.51;56.78;101520.88;4970264;28;20080;-71
2022/10/10 11:32:46;;;;;;;7.57;6.25;;;;;;;22.52;56.73;101525.28;5014195;28;20417;-71
2022/10/10 11:35:34;;;;;;;9.80;6.68;;;;;;;22.51;56.37;101526.28;5014032;28;20080;-71
2022/10/10 11:38:12;;;;;;;7.47;6.20;;;;;;;22.52;56.60;101519.03;5013631;28;20053;-71
2022/10/10 11:40:47;;;;;;;7.90;4.95;;;;;;;22.52;56.80;101509.09;5013186;28;20069;-72
2022/10/10 11:43:21;;;;;;;6.40;5.15;;;;;;;22.52;56.77;101505.53;5012911;28;20589;-71
2022/10/10 11:45:56;;;;;;;7.45;5.20;;;;;;;22.52;56.92;101492.06;4996414;28;20058;-74
2022/10/10 11:48:38;;;;;;;6.93;5.07;;;;;;;22.51;56.84;101493.03;5067490;28;20057;-72
2022/10/10 11:51:27;;;;;;;8.63;5.38;;;;;;;22.50;57.00;101486.81;5081831;28;20063;-71
2022/10/10 11:54:09;;;;;;;8.48;5.65;;;;;;;22.51;56.43;101491.19;5077715;28;20381;-71